M/y Paradigm — V7TE6 — position and weather

sailwx.info

Track history (hours):
 
Tides and Currents Weather Stations Pressure Air Temp Water Temp Dewpoint Dewpoint Depression Visibility Wind Speed Wind Dir Waves Ship Positions

M/y Paradigm

Last reported at 2015-Feb-21 19:33 UTC. Time now 2015-Mar-03 18:52 UTC.
Position N 18°18' W 064°52'.
Warning: this ship's position is 9 days out of date.

Length 35 m.

Type: Pleasure craft. MMSI: 538070694.

Date/timePositionNaut miles runAvg speedWind from/ knotsBaromVisibWave heightAir tempDewpointWater temp
2015-Feb-21 19:33N 18°18' W 064°52'10 9.8
2015-Feb-21 18:30N 18°26' W 064°46'0 0.0
2015-Feb-21 17:24N 18°26' W 064°46'0 0.0
2015-Feb-21 15:30N 18°26' W 064°46'0 0.0
2015-Feb-21 14:30N 18°26' W 064°46'0 0.0
2015-Feb-21 13:30N 18°26' W 064°46'0 0.0
2015-Feb-21 12:24N 18°26' W 064°46'0 0.0
2015-Feb-21 11:30N 18°26' W 064°46'0 0.0
2015-Feb-21 10:30N 18°26' W 064°46'0 0.0
2015-Feb-21 09:30N 18°26' W 064°46'0 0.0
2015-Feb-21 08:24N 18°26' W 064°46'0 0.0
2015-Feb-21 07:30N 18°26' W 064°46'0 0.0
2015-Feb-21 06:30N 18°26' W 064°46'0 0.0
2015-Feb-21 05:30N 18°26' W 064°46'0 0.0
2015-Feb-21 04:30N 18°26' W 064°46'0 0.0
2015-Feb-21 03:24N 18°26' W 064°46'0 0.0
2015-Feb-21 02:30N 18°26' W 064°46'0 0.0
2015-Feb-21 01:24N 18°26' W 064°46'0 0.0
2015-Feb-21 00:30N 18°26' W 064°46'0 0.0
2015-Feb-20 23:30N 18°26' W 064°46'0 0.0
2015-Feb-20 22:24N 18°26' W 064°46'0 0.0
2015-Feb-20 21:24N 18°26' W 064°46'0 0.0
2015-Feb-20 20:18N 18°26' W 064°46'0 0.0
2015-Feb-20 19:24N 18°26' W 064°46'0 0.0
2015-Feb-20 18:30N 18°26' W 064°46'0 0.0
2015-Feb-20 17:24N 18°26' W 064°46'0 0.0
2015-Feb-20 16:30N 18°26' W 064°46'0 0.0
2015-Feb-20 15:30N 18°26' W 064°46'0 0.0
2015-Feb-20 14:24N 18°26' W 064°46'0 0.0
2015-Feb-20 13:24N 18°26' W 064°46'0 0.0
2015-Feb-20 12:24N 18°26' W 064°46'0 0.0
2015-Feb-20 11:30N 18°26' W 064°46'0 0.0
2015-Feb-20 10:30N 18°26' W 064°46'0 0.0
2015-Feb-20 09:30N 18°26' W 064°46'0 0.0
2015-Feb-20 08:30N 18°26' W 064°46'0 0.0
2015-Feb-20 07:30N 18°26' W 064°46'0 0.0
2015-Feb-20 06:30N 18°26' W 064°46'0 0.0
2015-Feb-20 05:30N 18°26' W 064°46'0 0.0
2015-Feb-20 04:30N 18°26' W 064°46'0 0.0
2015-Feb-20 02:30N 18°26' W 064°46'0 0.0
2015-Feb-20 01:30N 18°26' W 064°46'0 0.0
2015-Feb-20 00:12N 18°26' W 064°46'0 0.0
2015-Feb-19 23:24N 18°26' W 064°46'0 0.0
2015-Feb-19 22:30N 18°26' W 064°46'5 4.7
2015-Feb-19 21:32N 18°23' W 064°43'6 1.6
2015-Feb-19 17:33N 18°25' W 064°36'6 5.0
2015-Feb-19 16:25N 18°25' W 064°30'3 0.1
2015-Feb-17 16:24N 18°24' W 064°34'8 3.8
2015-Feb-17 14:11N 18°23' W 064°43'0 0.0
2015-Feb-17 13:29N 18°23' W 064°43'0 0.1
2015-Feb-17 12:32N 18°23' W 064°43'0 0.0
2015-Feb-17 11:08N 18°23' W 064°43'0 0.0
2015-Feb-17 10:32N 18°23' W 064°43'0 0.0
2015-Feb-17 09:32N 18°23' W 064°43'0 0.0
2015-Feb-17 08:29N 18°23' W 064°43'0 0.0
2015-Feb-17 07:32N 18°23' W 064°43'0 0.0
2015-Feb-17 06:11N 18°23' W 064°43'0 0.0
2015-Feb-17 05:29N 18°23' W 064°43'0 0.0
2015-Feb-17 04:29N 18°23' W 064°43'0 0.0
2015-Feb-17 03:23N 18°23' W 064°43'0 0.0
2015-Feb-17 02:29N 18°23' W 064°43'0 0.0
2015-Feb-17 01:29N 18°23' W 064°43'0 0.0
2015-Feb-17 00:11N 18°23' W 064°42'0 0.0
2015-Feb-16 23:29N 18°23' W 064°43'0 0.0
2015-Feb-16 22:29N 18°23' W 064°43'0 0.0
2015-Feb-16 21:29N 18°23' W 064°43'0 0.0
2015-Feb-16 20:17N 18°23' W 064°43'0 0.0
2015-Feb-16 18:23N 18°23' W 064°42'0 0.2
2015-Feb-16 17:33N 18°23' W 064°43'3 2.6
2015-Feb-16 16:32N 18°22' W 064°45'0 0.0
2015-Feb-16 15:32N 18°22' W 064°45'0 0.0
2015-Feb-16 14:26N 18°22' W 064°45'0 0.0
2015-Feb-16 13:26N 18°22' W 064°45'0 0.0
2015-Feb-16 12:32N 18°22' W 064°45'0 0.0
2015-Feb-16 11:32N 18°22' W 064°45'0 0.0
2015-Feb-16 10:32N 18°22' W 064°45'0 0.0
2015-Feb-16 09:32N 18°22' W 064°45'0 0.0
2015-Feb-16 08:32N 18°22' W 064°45'0 0.0
2015-Feb-16 07:32N 18°22' W 064°45'0 0.0
2015-Feb-16 06:26N 18°22' W 064°45'0 0.0
2015-Feb-16 05:26N 18°22' W 064°45'0 0.0
2015-Feb-16 04:32N 18°22' W 064°45'0 0.0
2015-Feb-16 03:32N 18°22' W 064°45'0 0.0
2015-Feb-16 02:26N 18°22' W 064°45'0 0.0
2015-Feb-16 01:20N 18°22' W 064°45'0 0.0
2015-Feb-16 00:20N 18°22' W 064°45'0 0.0
2015-Feb-15 23:32N 18°22' W 064°45'0 0.0
2015-Feb-15 22:32N 18°22' W 064°45'0 0.0
2015-Feb-15 21:26N 18°22' W 064°45'0 0.0
2015-Feb-15 20:26N 18°22' W 064°45'0 0.0
2015-Feb-15 19:26N 18°22' W 064°45'0 0.0
2015-Feb-15 17:32N 18°22' W 064°45'0 0.4
2015-Feb-15 16:33N 18°22' W 064°45'8 0.4
2015-Feb-14 22:17N 18°18' W 064°52'3 1.3
2015-Feb-14 20:23N 18°19' W 064°50'  
Track history (hours):
 
Tides and Currents Weather Stations Pressure Air Temp Water Temp Dewpoint Dewpoint Depression Visibility Wind Speed Wind Dir Waves Ship Positions

M/y Paradigm

Last reported at 2015-Feb-21 19:33 UTC. Time now 2015-Mar-03 18:52 UTC.
Position N 18°18' W 064°52'.
Warning: this ship's position is 9 days out of date.

Length 35 m.

Type: Pleasure craft. MMSI: 538070694.

Date/timePositionNaut miles runAvg speedWind from/ knotsBaromVisibWave heightAir tempDewpointWater temp
2015-Feb-21 19:33N 18°18' W 064°52'10 9.8
2015-Feb-21 18:30N 18°26' W 064°46'0 0.0
2015-Feb-21 17:24N 18°26' W 064°46'0 0.0
2015-Feb-21 15:30N 18°26' W 064°46'0 0.0
2015-Feb-21 14:30N 18°26' W 064°46'0 0.0
2015-Feb-21 13:30N 18°26' W 064°46'0 0.0
2015-Feb-21 12:24N 18°26' W 064°46'0 0.0
2015-Feb-21 11:30N 18°26' W 064°46'0 0.0
2015-Feb-21 10:30N 18°26' W 064°46'0 0.0
2015-Feb-21 09:30N 18°26' W 064°46'0 0.0
2015-Feb-21 08:24N 18°26' W 064°46'0 0.0
2015-Feb-21 07:30N 18°26' W 064°46'0 0.0
2015-Feb-21 06:30N 18°26' W 064°46'0 0.0
2015-Feb-21 05:30N 18°26' W 064°46'0 0.0
2015-Feb-21 04:30N 18°26' W 064°46'0 0.0
2015-Feb-21 03:24N 18°26' W 064°46'0 0.0
2015-Feb-21 02:30N 18°26' W 064°46'0 0.0
2015-Feb-21 01:24N 18°26' W 064°46'0 0.0
2015-Feb-21 00:30N 18°26' W 064°46'0 0.0
2015-Feb-20 23:30N 18°26' W 064°46'0 0.0
2015-Feb-20 22:24N 18°26' W 064°46'0 0.0
2015-Feb-20 21:24N 18°26' W 064°46'0 0.0
2015-Feb-20 20:18N 18°26' W 064°46'0 0.0
2015-Feb-20 19:24N 18°26' W 064°46'0 0.0
2015-Feb-20 18:30N 18°26' W 064°46'0 0.0
2015-Feb-20 17:24N 18°26' W 064°46'0 0.0
2015-Feb-20 16:30N 18°26' W 064°46'0 0.0
2015-Feb-20 15:30N 18°26' W 064°46'0 0.0
2015-Feb-20 14:24N 18°26' W 064°46'0 0.0
2015-Feb-20 13:24N 18°26' W 064°46'0 0.0
2015-Feb-20 12:24N 18°26' W 064°46'0 0.0
2015-Feb-20 11:30N 18°26' W 064°46'0 0.0
2015-Feb-20 10:30N 18°26' W 064°46'0 0.0
2015-Feb-20 09:30N 18°26' W 064°46'0 0.0
2015-Feb-20 08:30N 18°26' W 064°46'0 0.0
2015-Feb-20 07:30N 18°26' W 064°46'0 0.0
2015-Feb-20 06:30N 18°26' W 064°46'0 0.0
2015-Feb-20 05:30N 18°26' W 064°46'0 0.0
2015-Feb-20 04:30N 18°26' W 064°46'0 0.0
2015-Feb-20 02:30N 18°26' W 064°46'0 0.0
2015-Feb-20 01:30N 18°26' W 064°46'0 0.0
2015-Feb-20 00:12N 18°26' W 064°46'0 0.0
2015-Feb-19 23:24N 18°26' W 064°46'0 0.0
2015-Feb-19 22:30N 18°26' W 064°46'5 4.7
2015-Feb-19 21:32N 18°23' W 064°43'6 1.6
2015-Feb-19 17:33N 18°25' W 064°36'6 5.0
2015-Feb-19 16:25N 18°25' W 064°30'3 0.1
2015-Feb-17 16:24N 18°24' W 064°34'8 3.8
2015-Feb-17 14:11N 18°23' W 064°43'0 0.0
2015-Feb-17 13:29N 18°23' W 064°43'0 0.1
2015-Feb-17 12:32N 18°23' W 064°43'0 0.0
2015-Feb-17 11:08N 18°23' W 064°43'0 0.0
2015-Feb-17 10:32N 18°23' W 064°43'0 0.0
2015-Feb-17 09:32N 18°23' W 064°43'0 0.0
2015-Feb-17 08:29N 18°23' W 064°43'0 0.0
2015-Feb-17 07:32N 18°23' W 064°43'0 0.0
2015-Feb-17 06:11N 18°23' W 064°43'0 0.0
2015-Feb-17 05:29N 18°23' W 064°43'0 0.0
2015-Feb-17 04:29N 18°23' W 064°43'0 0.0
2015-Feb-17 03:23N 18°23' W 064°43'0 0.0
2015-Feb-17 02:29N 18°23' W 064°43'0 0.0
2015-Feb-17 01:29N 18°23' W 064°43'0 0.0
2015-Feb-17 00:11N 18°23' W 064°42'0 0.0
2015-Feb-16 23:29N 18°23' W 064°43'0 0.0
2015-Feb-16 22:29N 18°23' W 064°43'0 0.0
2015-Feb-16 21:29N 18°23' W 064°43'0 0.0
2015-Feb-16 20:17N 18°23' W 064°43'0 0.0
2015-Feb-16 18:23N 18°23' W 064°42'0 0.2
2015-Feb-16 17:33N 18°23' W 064°43'3 2.6
2015-Feb-16 16:32N 18°22' W 064°45'0 0.0
2015-Feb-16 15:32N 18°22' W 064°45'0 0.0
2015-Feb-16 14:26N 18°22' W 064°45'0 0.0
2015-Feb-16 13:26N 18°22' W 064°45'0 0.0
2015-Feb-16 12:32N 18°22' W 064°45'0 0.0
2015-Feb-16 11:32N 18°22' W 064°45'0 0.0
2015-Feb-16 10:32N 18°22' W 064°45'0 0.0
2015-Feb-16 09:32N 18°22' W 064°45'0 0.0
2015-Feb-16 08:32N 18°22' W 064°45'0 0.0
2015-Feb-16 07:32N 18°22' W 064°45'0 0.0
2015-Feb-16 06:26N 18°22' W 064°45'0 0.0
2015-Feb-16 05:26N 18°22' W 064°45'0 0.0
2015-Feb-16 04:32N 18°22' W 064°45'0 0.0
2015-Feb-16 03:32N 18°22' W 064°45'0 0.0
2015-Feb-16 02:26N 18°22' W 064°45'0 0.0
2015-Feb-16 01:20N 18°22' W 064°45'0 0.0
2015-Feb-16 00:20N 18°22' W 064°45'0 0.0
2015-Feb-15 23:32N 18°22' W 064°45'0 0.0
2015-Feb-15 22:32N 18°22' W 064°45'0 0.0
2015-Feb-15 21:26N 18°22' W 064°45'0 0.0
2015-Feb-15 20:26N 18°22' W 064°45'0 0.0
2015-Feb-15 19:26N 18°22' W 064°45'0 0.0
2015-Feb-15 17:32N 18°22' W 064°45'0 0.4
2015-Feb-15 16:33N 18°22' W 064°45'8 0.4
2015-Feb-14 22:17N 18°18' W 064°52'3 1.3
2015-Feb-14 20:23N 18°19' W 064°50'  

Dump ship's entire track history